createdAt,value
2018-09-15T00:00:49.400Z,13.43
2018-09-15T00:06:50.192Z,14.72
2018-09-15T00:12:50.853Z,12.24
2018-09-15T00:16:51.755Z,13.45
2018-09-15T00:22:52.599Z,13.65
2018-09-15T00:26:53.582Z,14.47
2018-09-15T00:28:54.338Z,13.04
2018-09-15T00:32:55.189Z,14.83
2018-09-15T00:38:56.148Z,12.46
2018-09-15T00:42:56.737Z,13.09
2018-09-15T00:53:02.941Z,14
2018-09-15T00:53:03.225Z,14.26
2018-09-15T00:55:04.172Z,14.08
2018-09-15T00:59:04.560Z,15.74
2018-09-15T01:05:05.306Z,12.51
2018-09-15T01:09:06.052Z,12.03
2018-09-15T01:15:07.175Z,12.03
2018-09-15T01:21:07.936Z,12.36
2018-09-15T01:25:08.994Z,10.85
2018-09-15T01:31:09.429Z,11.19
2018-09-15T01:35:10.808Z,12.96
2018-09-15T01:37:11.090Z,12.82
2018-09-15T01:41:11.798Z,12.26
2018-09-15T01:47:12.712Z,13.92
2018-09-15T01:51:13.393Z,14.13
2018-09-15T01:57:14.167Z,13.09
2018-09-15T02:01:14.996Z,13.2
2018-09-15T02:03:15.531Z,15.7
2018-09-15T02:07:16.377Z,14.26
2018-09-15T02:13:17.175Z,13.19
2018-09-15T02:17:18.073Z,13.1
2018-09-15T02:23:18.772Z,13.94
2018-09-15T02:29:19.516Z,12.85
2018-09-15T02:33:20.373Z,12.11
2018-09-15T02:39:21.172Z,14.3
2018-09-15T02:43:21.925Z,13.73
2018-09-15T02:45:22.851Z,12.94
2018-09-15T02:49:23.527Z,12.18
2018-09-15T02:55:24.285Z,13.26
2018-09-15T02:59:25.250Z,14.42
2018-09-15T03:05:26.151Z,11.79
2018-09-15T03:11:26.928Z,11.39
2018-09-15T03:15:28.251Z,11.54
2018-09-15T03:21:28.911Z,13.79
2018-09-15T03:25:29.682Z,17.02
2018-09-15T03:31:30.504Z,11.63
2018-09-15T03:37:31.459Z,18.72
2018-09-15T03:41:32.339Z,14.07
2018-09-15T03:47:33.021Z,11.61
2018-09-15T03:51:33.979Z,11.79
2018-09-15T03:53:34.619Z,11.55
2018-09-15T03:57:35.425Z,12.54
2018-09-15T04:03:36.236Z,11.76
2018-09-15T04:07:37.016Z,11.02
2018-09-15T04:13:37.800Z,13.11
2018-09-15T04:19:38.513Z,11.78
2018-09-15T04:23:39.174Z,13.29
2018-09-15T04:29:39.974Z,14.19
2018-09-15T04:33:40.863Z,12.47
2018-09-15T04:35:41.579Z,15.16
2018-09-15T04:39:42.457Z,16.19
2018-09-15T04:45:43.243Z,54.56
2018-09-15T04:49:44.088Z,43.27
2018-09-15T04:55:44.812Z,23.68
2018-09-15T04:59:45.827Z,21.57
2018-09-15T05:01:46.576Z,52.82
2018-09-15T05:05:47.402Z,71.41
2018-09-15T05:11:48.086Z,35.62
2018-09-15T05:15:48.925Z,35.01
2018-09-15T05:21:49.748Z,44.34
2018-09-15T05:27:50.501Z,23.32
2018-09-15T05:31:51.200Z,21.7
2018-09-15T05:37:52.047Z,20.5
2018-09-15T05:41:52.782Z,20.81
2018-09-15T05:43:53.526Z,19.06
2018-09-15T05:47:54.303Z,18.15
2018-09-15T05:53:55.045Z,18.17
2018-09-15T05:57:55.781Z,16.61
2018-09-15T06:03:56.675Z,15.77
2018-09-15T06:09:57.331Z,16.21
2018-09-15T06:13:58.046Z,15.18
2018-09-15T06:19:58.751Z,17.08
2018-09-15T06:23:59.508Z,14.33
2018-09-15T06:26:00.272Z,16.31
2018-09-15T06:30:01.011Z,14.02
2018-09-15T06:36:01.807Z,14.68
2018-09-15T06:40:02.546Z,14.07
2018-09-15T06:46:03.382Z,16.04
2018-09-15T06:50:04.257Z,15.23
2018-09-15T06:52:04.849Z,18.24
2018-09-15T06:56:05.522Z,19.95
2018-09-15T07:02:06.272Z,20.49
2018-09-15T07:06:07.089Z,20.47
2018-09-15T07:12:07.800Z,19.89
2018-09-15T07:18:08.611Z,17.35
2018-09-15T07:22:09.317Z,18.03
2018-09-15T07:28:10.186Z,19.36
2018-09-15T07:32:10.894Z,18.37
2018-09-15T07:34:11.596Z,20.2
2018-09-15T07:38:12.351Z,20.98
2018-09-15T07:44:13.125Z,22.4
2018-09-15T07:48:13.866Z,22.95
2018-09-15T07:54:14.731Z,22.16
2018-09-15T08:00:15.877Z,23.54
2018-09-15T08:04:16.734Z,21.26
2018-09-15T08:10:17.687Z,20.96
2018-09-15T08:14:18.552Z,20.4
2018-09-15T08:20:19.288Z,20.89
2018-09-15T08:26:20.373Z,19.31
2018-09-15T08:30:21.418Z,18.03
2018-09-15T08:36:22.249Z,20.16
2018-09-15T08:40:23.057Z,20.45
2018-09-15T08:42:23.695Z,18.11
2018-09-15T08:46:24.637Z,18.16
2018-09-15T08:52:25.344Z,17.74
2018-09-15T08:56:26.103Z,17.15
2018-09-15T09:02:26.809Z,16.49
2018-09-15T09:08:27.515Z,17.3
2018-09-15T09:12:28.266Z,16.24
2018-09-15T09:18:29.095Z,15.3
2018-09-15T09:22:30.362Z,15.03
2018-09-15T09:24:31.184Z,15.87
2018-09-15T09:28:31.939Z,15.6
2018-09-15T09:34:32.354Z,15.53
2018-09-15T09:38:33.123Z,14.65
2018-09-15T09:44:33.808Z,14.38
2018-09-15T09:48:34.736Z,14.03
2018-09-15T09:50:35.476Z,13.94
2018-09-15T09:54:36.510Z,13.72
2018-09-15T10:00:37.008Z,16.5
2018-09-15T10:04:37.800Z,14.6
2018-09-15T10:10:38.992Z,13.78
2018-09-15T10:16:39.435Z,14.81
2018-09-15T10:20:40.283Z,13.6
2018-09-15T10:26:41.043Z,13.79
2018-09-15T10:30:41.850Z,14.02
2018-09-15T10:32:42.640Z,13.65
2018-09-15T10:36:43.401Z,14.73
2018-09-15T10:42:44.175Z,14.69
2018-09-15T10:46:45.081Z,13.54
2018-09-15T10:52:45.761Z,14.12
2018-09-15T10:58:46.523Z,15.35
2018-09-15T11:02:47.363Z,14.75
2018-09-15T11:08:48.146Z,13.76
2018-09-15T11:12:48.890Z,14.28
2018-09-15T11:14:49.590Z,14.86
2018-09-15T11:18:50.371Z,12.94
2018-09-15T11:24:51.158Z,15.17
2018-09-15T11:28:51.992Z,14.77
2018-09-15T11:34:52.662Z,14.08
2018-09-15T11:38:53.409Z,13.92
2018-09-15T11:40:54.086Z,14.59
2018-09-15T11:44:54.867Z,14.88
2018-09-15T11:50:55.639Z,13.86
2018-09-15T11:54:56.367Z,13.74
2018-09-15T12:00:57.150Z,12.4
2018-09-15T12:06:57.982Z,13.39
2018-09-15T12:10:58.764Z,12.65
2018-09-15T12:16:59.587Z,13.27
2018-09-15T12:21:00.345Z,13.57
2018-09-15T12:23:01.021Z,13.38
2018-09-15T12:27:01.915Z,12.54
2018-09-15T12:33:02.607Z,13.93
2018-09-15T12:37:03.368Z,13.48
2018-09-15T12:43:04.175Z,13.54
2018-09-15T12:49:08.938Z,11.98
2018-09-15T12:53:05.665Z,12.67
2018-09-15T12:59:10.695Z,16.36
2018-09-15T13:03:07.341Z,13.51
2018-09-15T13:05:08.159Z,13.42
2018-09-15T13:09:08.899Z,12.88
2018-09-15T13:15:10.024Z,20.34
2018-09-15T13:19:10.845Z,14.93
2018-09-15T13:25:15.775Z,20.66
2018-09-15T13:31:16.441Z,12.6
2018-09-15T13:35:17.390Z,17.32
2018-09-15T13:41:18.079Z,12
2018-09-15T13:45:19.474Z,11.61
2018-09-15T13:51:19.839Z,11.7
2018-09-15T13:57:16.453Z,10.7
2018-09-15T14:01:17.127Z,10.79
2018-09-15T14:07:17.858Z,10.51
2018-09-15T14:11:22.695Z,10.03
2018-09-15T14:13:23.507Z,9.99
2018-09-15T14:17:20.147Z,9.73
2018-09-15T14:23:21.011Z,10.81
2018-09-15T14:27:25.792Z,9.95
2018-09-15T14:33:26.584Z,11.01
2018-09-15T14:39:27.388Z,11.61
2018-09-15T14:43:24.102Z,10.79
2018-09-15T14:49:29.033Z,10.73
2018-09-15T14:53:29.960Z,10.24
2018-09-15T14:55:26.715Z,11.57
2018-09-15T14:59:31.462Z,11.54
2018-09-15T15:05:32.123Z,10.61
2018-09-15T15:09:33.131Z,11.26
2018-09-15T15:15:30.424Z,11.15
2018-09-15T15:21:35.344Z,11.73
2018-09-15T15:25:36.287Z,12.02
2018-09-15T15:31:37.090Z,12.21
2018-09-15T15:35:33.934Z,10.27
2018-09-15T15:41:34.836Z,11.43
2018-09-15T15:47:39.711Z,12.42
2018-09-15T15:51:36.465Z,11.63
2018-09-15T15:57:41.614Z,11.44
2018-09-15T16:01:38.364Z,11.55
2018-09-15T16:03:38.992Z,12.84
2018-09-15T16:07:39.660Z,11.86
2018-09-15T16:13:44.846Z,12.75
2018-09-15T16:17:49.337Z,12.63
2018-09-15T16:23:41.904Z,12.28
2018-09-15T16:23:41.963Z,12.28
2018-09-15T16:29:42.651Z,11.84
2018-09-15T16:33:43.486Z,13.94
2018-09-15T16:39:48.325Z,13.74
2018-09-15T16:43:44.929Z,14.99
2018-09-15T16:45:49.729Z,14.22
2018-09-15T16:49:46.400Z,13.39
2018-09-15T16:55:47.132Z,13.59
2018-09-15T16:59:51.972Z,13.33
2018-09-15T17:05:48.827Z,13.51
2018-09-15T17:11:49.515Z,14.68
2018-09-15T17:15:58.433Z,13.98
2018-09-15T17:21:55.019Z,14.35
2018-09-15T17:25:56.804Z,14.21
2018-09-15T17:27:56.444Z,15.64
2018-09-15T17:31:53.353Z,15.27
2018-09-15T17:37:54.107Z,15.63
2018-09-15T17:41:54.800Z,14.3
2018-09-15T17:47:55.662Z,14.64
2018-09-15T17:51:56.431Z,13.89
2018-09-15T17:53:57.133Z,14.18
2018-09-15T17:57:57.973Z,15.05
2018-09-15T18:03:58.710Z,13.05
2018-09-15T18:07:59.399Z,12.87
2018-09-15T18:14:00.161Z,14.37
2018-09-15T18:20:00.937Z,13.18
2018-09-15T18:24:01.728Z,14.95
2018-09-15T18:30:02.575Z,13.91
2018-09-15T18:34:04.976Z,11.69
2018-09-15T18:36:04.243Z,12.45
2018-09-15T18:40:04.823Z,11.96
2018-09-15T18:46:05.604Z,11.63
2018-09-15T18:50:06.329Z,11.83
2018-09-15T18:56:07.079Z,11.25
2018-09-15T19:02:08.125Z,11.28
2018-09-15T19:06:08.968Z,11.01
2018-09-15T19:12:09.578Z,11.91
2018-09-15T19:16:10.453Z,11.95
2018-09-15T19:18:11.222Z,12.14
2018-09-15T19:22:11.960Z,12.3
2018-09-15T19:28:12.760Z,14.69
2018-09-15T19:32:13.475Z,11.63
2018-09-15T19:38:14.357Z,19.05
2018-09-15T19:42:15.164Z,18.68
2018-09-15T19:44:15.940Z,16.05
2018-09-15T19:48:16.732Z,16.71
2018-09-15T19:54:17.629Z,14.53
2018-09-15T19:58:18.344Z,14.04
2018-09-15T20:04:19.243Z,13.06
2018-09-15T20:10:20.035Z,16.31
2018-09-15T20:14:20.863Z,16.84
2018-09-15T20:20:21.595Z,14.38
2018-09-15T20:24:22.449Z,14.17
2018-09-15T20:26:23.071Z,15.08
2018-09-15T20:30:24.346Z,14.73
2018-09-15T20:36:25.194Z,15.16
2018-09-15T20:40:25.927Z,15.39
2018-09-15T20:46:26.710Z,22.28
2018-09-15T20:52:27.473Z,17.4
2018-09-15T20:56:28.238Z,17.43
2018-09-15T21:02:29.090Z,21.21
2018-09-15T21:06:29.764Z,21.65
2018-09-15T21:08:30.553Z,18.43
2018-09-15T21:12:31.372Z,17.16
2018-09-15T21:18:32.310Z,17.18
2018-09-15T21:22:33.179Z,17.53
2018-09-15T21:28:34.047Z,17.54
2018-09-15T21:32:34.784Z,17.05
2018-09-15T21:34:35.553Z,15.78
2018-09-15T21:38:36.351Z,15.09
2018-09-15T21:44:37.388Z,16.53
2018-09-15T21:48:38.766Z,16.32
2018-09-15T21:54:38.877Z,16.29
2018-09-15T22:00:39.638Z,17.68
2018-09-15T22:04:40.557Z,17.05
2018-09-15T22:10:41.467Z,16.09
2018-09-15T22:14:42.199Z,16.21
2018-09-15T22:16:42.958Z,16.25
2018-09-15T22:20:43.586Z,16.4
2018-09-15T22:26:44.306Z,14.93
2018-09-15T22:30:45.240Z,15.31
2018-09-15T22:36:45.982Z,15.42
2018-09-15T22:46:48.412Z,14.43
2018-09-15T22:46:48.606Z,14.67
2018-09-15T22:52:52.013Z,16.23
2018-09-15T22:56:52.725Z,14.38
2018-09-15T23:02:50.824Z,14.75
2018-09-15T23:08:53.475Z,16.4
2018-09-15T23:12:52.348Z,16.92
2018-09-15T23:18:55.038Z,15.16
2018-09-15T23:22:55.874Z,14.62
2018-09-15T23:24:54.909Z,16.71
2018-09-15T23:28:55.649Z,15.98
2018-09-15T23:34:56.452Z,16.57
2018-09-15T23:38:57.296Z,15.85
2018-09-15T23:44:58.051Z,17.06
2018-09-15T23:51:01.160Z,16.4
2018-09-15T23:54:59.616Z,16.9
